Acornridge, Missouri
Current Conditions -  °F | °C
As of 1:53 PM on Friday 31 Oct 2014 (Local Time) from KPOF Reporting Station
Clear Clear  
Wind Chill: 53°   Ceiling: Unl
Heat Index: 53°   Visibility: 10mi
Dew Point: 23°   Wind: 20mph
Humidity: 31%   Direction: 330°NNW
Pressure: 30.2"   Gusts: 35mph
Location:  36.9506°N, 90.1582°W
Report Text: KPOF 311853Z AUTO 33017G30KT 10SM CLR 12/M05 A3020 RMK AO2 PK WND 33032/1802 SLP227 T01171050
Loading
Personal Weather Stations






























Interactive Weather Map
Tropical Storm Tracking
New forecast layout! Learn more

10-Day Weather Forecast

Advertisements
Track Severe Weather on mobile